createdAt,value
2022-09-29T00:01:36.068Z,276
2022-09-29T00:03:41.929Z,276
2022-09-29T00:05:47.239Z,276
2022-09-29T00:07:52.509Z,276
2022-09-29T00:09:58.322Z,276
2022-09-29T00:12:04.905Z,276
2022-09-29T00:14:10.406Z,276
2022-09-29T00:16:16.121Z,276
2022-09-29T00:18:21.465Z,276
2022-09-29T00:20:27.142Z,277
2022-09-29T00:22:32.214Z,276
2022-09-29T00:24:37.669Z,276
2022-09-29T00:26:43.958Z,277
2022-09-29T00:28:49.185Z,277
2022-09-29T00:30:54.061Z,276
2022-09-29T00:32:59.522Z,277
2022-09-29T00:35:05.256Z,277
2022-09-29T00:37:10.478Z,277
2022-09-29T00:39:15.828Z,277
2022-09-29T00:41:21.771Z,277
2022-09-29T00:43:27.112Z,277
2022-09-29T00:45:32.457Z,277
2022-09-29T00:47:38.257Z,277
2022-09-29T00:49:43.831Z,277
2022-09-29T00:51:49.322Z,277
2022-09-29T00:53:54.686Z,277
2022-09-29T00:55:59.959Z,277
2022-09-29T00:58:05.145Z,277
2022-09-29T01:00:10.620Z,277
2022-09-29T01:02:15.921Z,277
2022-09-29T01:04:21.599Z,277
2022-09-29T01:06:27.172Z,277
2022-09-29T01:08:32.293Z,277
2022-09-29T01:10:37.591Z,277
2022-09-29T01:12:42.871Z,277
2022-09-29T01:14:48.369Z,277
2022-09-29T01:16:56.658Z,277
2022-09-29T01:19:02.633Z,277
2022-09-29T01:21:08.401Z,277
2022-09-29T01:23:13.608Z,277
2022-09-29T01:25:19.065Z,277
2022-09-29T01:27:25.063Z,277
2022-09-29T01:29:30.071Z,280
2022-09-29T01:31:35.605Z,279
2022-09-29T01:33:40.982Z,280
2022-09-29T01:35:47.492Z,280
2022-09-29T01:37:53.043Z,279
2022-09-29T01:39:58.396Z,280
2022-09-29T01:42:04.372Z,280
2022-09-29T01:44:10.206Z,280
2022-09-29T01:46:16.180Z,280
2022-09-29T01:48:21.362Z,280
2022-09-29T01:50:26.793Z,280
2022-09-29T01:52:32.353Z,280
2022-09-29T01:54:37.469Z,280
2022-09-29T01:56:42.528Z,280
2022-09-29T01:58:48.435Z,280
2022-09-29T02:00:53.993Z,280
2022-09-29T02:02:59.769Z,279
2022-09-29T02:05:05.190Z,280
2022-09-29T02:07:10.292Z,280
2022-09-29T02:09:15.588Z,280
2022-09-29T02:11:21.195Z,280
2022-09-29T02:13:26.629Z,280
2022-09-29T02:15:31.922Z,280
2022-09-29T02:17:38.143Z,280
2022-09-29T02:19:43.503Z,280
2022-09-29T02:21:48.875Z,280
2022-09-29T02:23:54.588Z,280
2022-09-29T02:25:59.701Z,280
2022-09-29T02:28:04.862Z,280
2022-09-29T02:30:10.259Z,280
2022-09-29T02:32:15.458Z,280
2022-09-29T02:34:20.919Z,280
2022-09-29T02:36:27.256Z,280
2022-09-29T02:38:32.756Z,280
2022-09-29T02:40:38.207Z,280
2022-09-29T02:42:43.475Z,280
2022-09-29T02:44:48.957Z,280
2022-09-29T02:46:54.038Z,280
2022-09-29T02:48:59.393Z,280
2022-09-29T02:51:05.372Z,280
2022-09-29T02:53:10.700Z,280
2022-09-29T02:55:16.073Z,280
2022-09-29T02:57:21.743Z,280
2022-09-29T02:59:27.289Z,280
2022-09-29T03:01:32.533Z,280
2022-09-29T03:03:37.965Z,280
2022-09-29T03:05:43.431Z,280
2022-09-29T03:07:49.154Z,280
2022-09-29T03:09:54.277Z,280
2022-09-29T03:11:59.529Z,280
2022-09-29T03:14:04.768Z,280
2022-09-29T03:16:10.682Z,280
2022-09-29T03:18:19.046Z,280
2022-09-29T03:20:24.360Z,280
2022-09-29T03:22:29.529Z,280
2022-09-29T03:24:34.753Z,280
2022-09-29T03:26:40.028Z,280
2022-09-29T03:28:45.336Z,280
2022-09-29T03:30:51.304Z,280
2022-09-29T03:32:56.597Z,280
2022-09-29T03:35:02.157Z,280
2022-09-29T03:37:07.539Z,280
2022-09-29T03:39:13.550Z,280
2022-09-29T03:41:19.211Z,280
2022-09-29T03:43:24.426Z,280
2022-09-29T03:45:29.930Z,280
2022-09-29T03:47:35.981Z,280
2022-09-29T03:49:41.677Z,280
2022-09-29T03:51:47.674Z,280
2022-09-29T03:53:53.069Z,280
2022-09-29T03:55:58.402Z,280
2022-09-29T03:58:04.439Z,280
2022-09-29T04:00:10.687Z,280
2022-09-29T04:02:16.843Z,280
2022-09-29T04:04:23.208Z,280
2022-09-29T04:06:28.816Z,280
2022-09-29T04:08:34.833Z,280
2022-09-29T04:10:40.793Z,280
2022-09-29T04:12:47.065Z,280
2022-09-29T04:14:53.070Z,280
2022-09-29T04:16:58.604Z,280
2022-09-29T04:19:04.956Z,280
2022-09-29T04:21:12.250Z,280
2022-09-29T04:23:18.732Z,280
2022-09-29T04:25:25.135Z,280
2022-09-29T04:27:30.505Z,280
2022-09-29T04:29:36.091Z,280
2022-09-29T04:31:42.075Z,280
2022-09-29T04:33:50.475Z,280
2022-09-29T04:35:56.345Z,281
2022-09-29T04:38:03.677Z,280
2022-09-29T04:40:10.080Z,280
2022-09-29T04:42:15.798Z,280
2022-09-29T04:44:21.967Z,281
2022-09-29T04:46:28.080Z,281
2022-09-29T04:48:38.523Z,281
2022-09-29T04:50:45.808Z,280
2022-09-29T04:52:52.358Z,281
2022-09-29T04:54:58.105Z,281
2022-09-29T04:57:03.850Z,280
2022-09-29T04:59:10.000Z,281
2022-09-29T05:01:16.307Z,281
2022-09-29T05:03:22.516Z,280
2022-09-29T05:05:28.521Z,281
2022-09-29T05:07:34.369Z,281
2022-09-29T05:09:40.387Z,280
2022-09-29T05:11:46.577Z,281
2022-09-29T05:13:52.640Z,281
2022-09-29T05:15:59.361Z,280
2022-09-29T05:18:05.589Z,281
2022-09-29T05:20:11.859Z,281
2022-09-29T05:22:17.660Z,281
2022-09-29T05:24:24.104Z,280
2022-09-29T05:26:30.479Z,281
2022-09-29T05:28:36.791Z,281
2022-09-29T05:30:43.041Z,281
2022-09-29T05:32:49.043Z,281
2022-09-29T05:34:55.143Z,281
2022-09-29T05:37:02.231Z,281
2022-09-29T05:39:08.479Z,281
2022-09-29T05:41:14.583Z,281
2022-09-29T05:43:20.645Z,281
2022-09-29T05:45:26.988Z,281
2022-09-29T05:47:33.246Z,281
2022-09-29T05:49:39.334Z,281
2022-09-29T05:51:45.611Z,281
2022-09-29T05:53:51.955Z,281
2022-09-29T05:55:58.239Z,281
2022-09-29T05:58:05.503Z,280
2022-09-29T06:00:12.009Z,281
2022-09-29T06:02:21.641Z,281
2022-09-29T06:04:28.245Z,281
2022-09-29T06:06:34.256Z,281
2022-09-29T06:08:40.328Z,281
2022-09-29T06:10:46.477Z,280
2022-09-29T06:12:52.700Z,280
2022-09-29T06:14:58.825Z,281
2022-09-29T06:17:05.038Z,281
2022-09-29T06:19:11.224Z,280
2022-09-29T06:21:16.974Z,281
2022-09-29T06:23:23.031Z,281
2022-09-29T06:25:31.560Z,280
2022-09-29T06:27:36.952Z,281
2022-09-29T06:29:42.609Z,281
2022-09-29T06:31:48.819Z,281
2022-09-29T06:33:55.696Z,281
2022-09-29T06:36:01.719Z,281
2022-09-29T06:38:08.485Z,280
2022-09-29T06:40:15.861Z,281
2022-09-29T06:42:22.389Z,281
2022-09-29T06:44:28.942Z,281
2022-09-29T06:46:35.372Z,281
2022-09-29T06:48:41.486Z,281
2022-09-29T06:50:57.128Z,281
2022-09-29T06:53:15.078Z,281
2022-09-29T06:55:21.845Z,281
2022-09-29T06:57:28.098Z,281
2022-09-29T06:59:34.242Z,281
2022-09-29T07:01:40.733Z,281
2022-09-29T07:03:47.369Z,281
2022-09-29T07:06:22.389Z,281
2022-09-29T07:08:28.729Z,281
2022-09-29T07:10:34.791Z,281
2022-09-29T07:12:40.840Z,281
2022-09-29T07:14:47.120Z,281
2022-09-29T07:16:53.483Z,281
2022-09-29T07:18:59.872Z,281
2022-09-29T07:21:06.232Z,281
2022-09-29T07:23:12.361Z,281
2022-09-29T07:25:53.007Z,281
2022-09-29T07:27:59.360Z,281
2022-09-29T07:30:07.297Z,281
2022-09-29T07:32:30.246Z,281
2022-09-29T07:34:37.590Z,281
2022-09-29T07:36:43.845Z,281
2022-09-29T07:38:50.063Z,281
2022-09-29T07:40:56.565Z,281
2022-09-29T07:43:03.240Z,281
2022-09-29T07:45:09.724Z,281
2022-09-29T07:47:16.038Z,281
2022-09-29T07:49:22.833Z,281
2022-09-29T07:51:28.900Z,281
2022-09-29T07:53:35.403Z,281
2022-09-29T07:55:41.560Z,281
2022-09-29T07:57:47.881Z,281
2022-09-29T07:59:56.323Z,281
2022-09-29T08:02:02.835Z,281
2022-09-29T08:04:09.451Z,281
2022-09-29T08:06:15.754Z,281
2022-09-29T08:08:23.155Z,281
2022-09-29T08:10:28.639Z,281
2022-09-29T08:12:46.330Z,281
2022-09-29T08:14:52.396Z,281
2022-09-29T08:16:58.634Z,281
2022-09-29T08:19:04.935Z,281
2022-09-29T08:21:11.528Z,281
2022-09-29T08:23:18.529Z,281
2022-09-29T08:25:24.980Z,281
2022-09-29T08:27:41.632Z,281
2022-09-29T08:30:14.439Z,281
2022-09-29T08:32:20.747Z,281
2022-09-29T08:34:26.983Z,280
2022-09-29T08:36:33.153Z,281
2022-09-29T08:38:39.521Z,281
2022-09-29T08:40:45.755Z,281
2022-09-29T08:42:52.638Z,281
2022-09-29T08:45:17.678Z,281
2022-09-29T08:47:26.793Z,281
2022-09-29T08:49:48.968Z,281
2022-09-29T08:51:56.195Z,281
2022-09-29T08:54:29.620Z,281
2022-09-29T08:56:44.794Z,281
2022-09-29T08:58:51.657Z,281
2022-09-29T09:00:59.645Z,281
2022-09-29T09:03:06.224Z,281
2022-09-29T09:05:12.453Z,281
2022-09-29T09:07:19.079Z,281
2022-09-29T09:09:25.354Z,281
2022-09-29T09:11:31.693Z,281
2022-09-29T09:13:37.191Z,279
2022-09-29T09:15:42.998Z,279
2022-09-29T09:17:49.132Z,280
2022-09-29T09:19:57.237Z,279
2022-09-29T09:22:03.499Z,279
2022-09-29T09:24:09.660Z,276
2022-09-29T09:26:17.078Z,276
2022-09-29T09:28:23.620Z,276
2022-09-29T09:30:30.320Z,276
2022-09-29T09:32:36.507Z,276
2022-09-29T09:34:48.067Z,276
2022-09-29T09:37:10.141Z,276
2022-09-29T09:39:16.423Z,279
2022-09-29T09:41:22.902Z,279
2022-09-29T09:43:29.218Z,279
2022-09-29T09:45:35.874Z,280
2022-09-29T09:47:43.415Z,280
2022-09-29T09:49:49.812Z,280
2022-09-29T09:51:56.039Z,280
2022-09-29T09:54:01.890Z,280
2022-09-29T09:56:08.022Z,280
2022-09-29T09:58:14.096Z,280
2022-09-29T10:00:21.370Z,280
2022-09-29T10:02:28.342Z,280
2022-09-29T10:04:34.886Z,280
2022-09-29T10:06:41.287Z,280
2022-09-29T10:08:48.671Z,280
2022-09-29T10:11:02.353Z,277
2022-09-29T10:13:09.855Z,279
2022-09-29T10:15:16.579Z,276
2022-09-29T10:17:26.710Z,270
2022-09-29T10:19:33.128Z,276
2022-09-29T10:21:39.330Z,278
2022-09-29T10:23:45.659Z,277
2022-09-29T10:25:51.638Z,276
2022-09-29T10:27:57.779Z,276
2022-09-29T10:30:04.169Z,277
2022-09-29T10:32:11.811Z,277
2022-09-29T10:34:18.561Z,278
2022-09-29T10:36:25.198Z,278
2022-09-29T10:38:31.669Z,278
2022-09-29T10:40:38.014Z,278
2022-09-29T10:42:44.203Z,278
2022-09-29T10:44:50.592Z,278
2022-09-29T10:46:57.088Z,279
2022-09-29T10:49:05.237Z,278
2022-09-29T10:51:11.472Z,277
2022-09-29T10:53:17.593Z,273
2022-09-29T10:55:24.531Z,273
2022-09-29T10:57:30.738Z,273
2022-09-29T10:59:38.073Z,273
2022-09-29T11:01:44.739Z,278
2022-09-29T11:03:50.710Z,274
2022-09-29T11:05:57.101Z,273
2022-09-29T11:08:03.642Z,273
2022-09-29T11:10:10.480Z,273
2022-09-29T11:12:16.958Z,273
2022-09-29T11:14:23.091Z,273
2022-09-29T11:16:29.394Z,274
2022-09-29T11:18:36.350Z,274
2022-09-29T11:20:42.979Z,277
2022-09-29T11:22:50.157Z,277
2022-09-29T11:24:56.156Z,277
2022-09-29T11:27:02.392Z,277
2022-09-29T11:29:08.684Z,277
2022-09-29T11:31:16.259Z,277
2022-09-29T11:33:23.771Z,277
2022-09-29T11:35:29.721Z,277
2022-09-29T11:37:41.528Z,277
2022-09-29T11:39:47.897Z,277
2022-09-29T11:41:54.137Z,278
2022-09-29T11:44:00.350Z,277
2022-09-29T11:46:06.261Z,274
2022-09-29T11:48:12.749Z,272
2022-09-29T11:50:22.383Z,274
2022-09-29T11:52:28.074Z,274
2022-09-29T11:54:34.591Z,276
2022-09-29T11:56:44.236Z,276
2022-09-29T11:58:50.448Z,276
2022-09-29T12:00:56.482Z,276
2022-09-29T12:03:02.924Z,276
2022-09-29T12:05:08.749Z,276
2022-09-29T12:07:15.930Z,276
2022-09-29T12:09:26.211Z,276
2022-09-29T12:12:38.267Z,276
2022-09-29T12:14:44.174Z,276
2022-09-29T12:16:50.965Z,276
2022-09-29T12:18:58.419Z,276
2022-09-29T12:21:04.618Z,276
2022-09-29T12:23:10.802Z,276
2022-09-29T12:25:17.008Z,276
2022-09-29T12:27:23.601Z,276
2022-09-29T12:29:29.238Z,276
2022-09-29T12:31:35.533Z,276
2022-09-29T12:33:41.939Z,276
2022-09-29T12:35:48.956Z,276
2022-09-29T12:37:54.974Z,276
2022-09-29T12:40:01.130Z,276
2022-09-29T12:42:07.418Z,276
2022-09-29T12:44:13.610Z,276
2022-09-29T12:46:20.639Z,276
2022-09-29T12:48:27.195Z,276
2022-09-29T12:50:33.439Z,276
2022-09-29T12:52:39.607Z,276
2022-09-29T12:54:45.798Z,276
2022-09-29T12:56:54.440Z,276
2022-09-29T12:59:00.952Z,276
2022-09-29T13:01:07.208Z,276
2022-09-29T13:03:13.348Z,276
2022-09-29T13:05:19.447Z,276
2022-09-29T13:07:26.016Z,276
2022-09-29T13:09:32.387Z,276
2022-09-29T13:11:38.268Z,276
2022-09-29T13:13:44.620Z,276
2022-09-29T13:15:51.816Z,276
2022-09-29T13:17:58.296Z,276
2022-09-29T13:20:06.272Z,276
2022-09-29T13:22:14.336Z,276
2022-09-29T13:24:20.390Z,276
2022-09-29T13:26:26.664Z,276
2022-09-29T13:28:36.176Z,276
2022-09-29T13:30:43.037Z,276
2022-09-29T13:33:02.912Z,276
2022-09-29T13:35:09.256Z,276
2022-09-29T13:37:15.486Z,276
2022-09-29T13:39:31.167Z,276
2022-09-29T13:41:37.584Z,276
2022-09-29T13:43:43.444Z,276
2022-09-29T13:45:49.836Z,276
2022-09-29T13:47:57.339Z,276
2022-09-29T13:50:03.989Z,276
2022-09-29T13:52:10.270Z,276
2022-09-29T13:54:16.866Z,276
2022-09-29T13:56:24.200Z,276
2022-09-29T13:58:30.512Z,276
2022-09-29T14:00:36.792Z,276
2022-09-29T14:02:43.477Z,276
2022-09-29T14:04:49.826Z,277
2022-09-29T14:06:55.953Z,276
2022-09-29T14:09:03.117Z,276
2022-09-29T14:11:09.251Z,276
2022-09-29T14:13:15.272Z,276
2022-09-29T14:15:21.871Z,277
2022-09-29T14:17:28.388Z,276
2022-09-29T14:19:34.804Z,276
2022-09-29T14:21:41.051Z,276
2022-09-29T14:23:47.517Z,276
2022-09-29T14:25:53.669Z,276
2022-09-29T14:28:00.067Z,276
2022-09-29T14:30:10.990Z,277
2022-09-29T14:32:17.520Z,277
2022-09-29T14:34:26.568Z,277
2022-09-29T14:36:32.639Z,277
2022-09-29T14:38:38.883Z,277
2022-09-29T14:40:45.110Z,277
2022-09-29T14:42:51.516Z,276
2022-09-29T14:44:57.909Z,277
2022-09-29T14:47:03.522Z,277
2022-09-29T14:49:09.002Z,276
2022-09-29T14:51:15.096Z,276
2022-09-29T14:53:21.865Z,276
2022-09-29T14:55:28.310Z,276
2022-09-29T14:57:34.588Z,276
2022-09-29T14:59:40.694Z,276
2022-09-29T15:01:47.053Z,276
2022-09-29T15:03:54.160Z,276
2022-09-29T15:06:00.980Z,276
2022-09-29T15:08:07.755Z,276
2022-09-29T15:10:15.022Z,276
2022-09-29T15:12:21.348Z,276
2022-09-29T15:14:27.959Z,276
2022-09-29T15:16:34.594Z,276
2022-09-29T15:18:40.939Z,276
2022-09-29T15:20:47.979Z,277
2022-09-29T15:22:54.329Z,277
2022-09-29T15:25:00.510Z,277
2022-09-29T15:27:06.494Z,277
2022-09-29T15:29:19.592Z,276
2022-09-29T15:31:26.537Z,276
2022-09-29T15:33:33.385Z,276
2022-09-29T15:35:39.781Z,276
2022-09-29T15:37:45.861Z,276
2022-09-29T15:39:51.644Z,277
2022-09-29T15:41:57.865Z,276
2022-09-29T15:44:05.459Z,276
2022-09-29T15:46:11.812Z,276
2022-09-29T15:48:18.289Z,276
2022-09-29T15:50:24.832Z,277
2022-09-29T15:52:31.250Z,277
2022-09-29T15:54:40.224Z,276
2022-09-29T15:56:47.164Z,276
2022-09-29T15:58:53.471Z,276
2022-09-29T16:00:59.994Z,276
2022-09-29T16:03:06.767Z,277
2022-09-29T16:05:13.368Z,277
2022-09-29T16:07:19.592Z,277
2022-09-29T16:09:25.798Z,276
2022-09-29T16:11:32.373Z,276
2022-09-29T16:13:38.618Z,276
2022-09-29T16:15:46.287Z,276
2022-09-29T16:17:52.959Z,276
2022-09-29T16:20:00.198Z,276
2022-09-29T16:22:06.521Z,276
2022-09-29T16:24:12.915Z,277
2022-09-29T16:26:19.517Z,277
2022-09-29T16:28:25.998Z,276
2022-09-29T16:30:32.220Z,276
2022-09-29T16:32:45.032Z,276
2022-09-29T16:34:51.176Z,276
2022-09-29T16:36:57.519Z,277
2022-09-29T16:39:03.907Z,276
2022-09-29T16:41:10.233Z,277
2022-09-29T16:43:16.675Z,276
2022-09-29T16:45:23.044Z,277
2022-09-29T16:47:30.319Z,276
2022-09-29T16:49:36.793Z,277
2022-09-29T16:51:43.622Z,277
2022-09-29T16:53:49.813Z,277
2022-09-29T16:55:55.820Z,277
2022-09-29T16:58:02.130Z,277
2022-09-29T17:00:08.823Z,277
2022-09-29T17:02:15.231Z,277
2022-09-29T17:04:21.460Z,276
2022-09-29T17:06:28.999Z,276
2022-09-29T17:08:35.296Z,277
2022-09-29T17:10:43.347Z,280
2022-09-29T17:12:49.735Z,274
2022-09-29T17:14:55.929Z,278
2022-09-29T17:17:02.320Z,276
2022-09-29T17:19:08.643Z,279
2022-09-29T17:21:14.998Z,280
2022-09-29T17:23:21.619Z,277
2022-09-29T17:25:28.138Z,277
2022-09-29T17:27:34.541Z,279
2022-09-29T17:29:40.805Z,278
2022-09-29T17:31:47.704Z,278
2022-09-29T17:33:54.400Z,278
2022-09-29T17:36:00.546Z,278
2022-09-29T17:38:06.869Z,278
2022-09-29T17:40:13.113Z,278
2022-09-29T17:42:19.555Z,278
2022-09-29T17:44:26.232Z,279
2022-09-29T17:46:33.879Z,278
2022-09-29T17:48:40.555Z,276
2022-09-29T17:50:46.882Z,280
2022-09-29T17:52:54.054Z,277
2022-09-29T17:55:03.215Z,276
2022-09-29T17:57:12.281Z,279
2022-09-29T17:59:18.758Z,277
2022-09-29T18:01:25.159Z,277
2022-09-29T18:03:39.118Z,272
2022-09-29T18:05:48.975Z,280
2022-09-29T18:07:55.639Z,279
2022-09-29T18:10:02.584Z,278
2022-09-29T18:12:09.654Z,276
2022-09-29T18:14:18.062Z,276
2022-09-29T18:16:26.767Z,276
2022-09-29T18:18:35.042Z,276
2022-09-29T18:20:41.687Z,276
2022-09-29T18:22:49.210Z,277
2022-09-29T18:24:56.595Z,278
2022-09-29T18:27:04.125Z,277
2022-09-29T18:29:15.227Z,276
2022-09-29T18:31:22.630Z,273
2022-09-29T18:33:32.094Z,277
2022-09-29T18:35:38.889Z,280
2022-09-29T18:37:47.373Z,277
2022-09-29T18:39:53.756Z,278
2022-09-29T18:42:01.222Z,277
2022-09-29T18:44:08.512Z,267
2022-09-29T18:46:16.609Z,272
2022-09-29T18:48:24.032Z,278
2022-09-29T18:50:32.535Z,277
2022-09-29T18:52:41.353Z,279
2022-09-29T18:54:48.596Z,277
2022-09-29T18:57:02.525Z,277
2022-09-29T18:59:13.246Z,278
2022-09-29T19:01:23.173Z,279
2022-09-29T19:03:30.358Z,282
2022-09-29T19:05:40.160Z,282
2022-09-29T19:07:54.054Z,282
2022-09-29T19:10:01.489Z,282
2022-09-29T19:12:08.719Z,282
2022-09-29T19:14:16.011Z,282
2022-09-29T19:16:24.080Z,282
2022-09-29T19:18:32.335Z,282
2022-09-29T19:20:39.394Z,282
2022-09-29T19:22:46.424Z,282
2022-09-29T19:24:53.995Z,282
2022-09-29T19:27:02.310Z,282
2022-09-29T19:29:09.735Z,282
2022-09-29T19:31:17.586Z,282
2022-09-29T19:33:26.406Z,282
2022-09-29T19:35:34.148Z,282
2022-09-29T19:37:44.802Z,282
2022-09-29T19:39:53.154Z,282
2022-09-29T19:42:01.842Z,282
2022-09-29T19:44:12.913Z,278
2022-09-29T19:46:20.317Z,277
2022-09-29T19:48:27.912Z,279
2022-09-29T19:50:34.788Z,279
2022-09-29T19:52:42.121Z,279
2022-09-29T19:54:48.987Z,279
2022-09-29T19:56:56.026Z,278
2022-09-29T19:59:10.349Z,278
2022-09-29T20:01:17.881Z,278
2022-09-29T20:03:26.781Z,278
2022-09-29T20:05:34.435Z,278
2022-09-29T20:07:43.302Z,278
2022-09-29T20:09:51.050Z,278
2022-09-29T20:12:00.423Z,278
2022-09-29T20:14:09.724Z,278
2022-09-29T20:16:16.863Z,278
2022-09-29T20:18:24.489Z,278
2022-09-29T20:20:31.588Z,278
2022-09-29T20:22:39.261Z,278
2022-09-29T20:24:45.267Z,279
2022-09-29T20:26:52.442Z,279
2022-09-29T20:28:58.757Z,279
2022-09-29T20:31:05.644Z,278
2022-09-29T20:33:12.852Z,278
2022-09-29T20:35:19.449Z,278
2022-09-29T20:37:26.425Z,278
2022-09-29T20:39:33.519Z,278
2022-09-29T20:41:39.745Z,278
2022-09-29T20:43:46.273Z,278
2022-09-29T20:45:52.974Z,278
2022-09-29T20:47:59.512Z,278
2022-09-29T20:50:05.835Z,278
2022-09-29T20:52:12.180Z,279
2022-09-29T20:54:18.997Z,278
2022-09-29T20:56:26.326Z,279
2022-09-29T20:58:32.345Z,279
2022-09-29T21:00:38.805Z,279
2022-09-29T21:02:44.656Z,279
2022-09-29T21:04:50.809Z,278
2022-09-29T21:07:00.840Z,279
2022-09-29T21:09:12.701Z,279
2022-09-29T21:11:18.412Z,279
2022-09-29T21:13:24.107Z,279
2022-09-29T21:15:31.209Z,279
2022-09-29T21:17:37.181Z,279
2022-09-29T21:19:42.589Z,279
2022-09-29T21:21:47.759Z,279
2022-09-29T21:23:53.838Z,279
2022-09-29T21:25:59.985Z,279
2022-09-29T21:28:05.777Z,279
2022-09-29T21:30:11.296Z,279
2022-09-29T21:32:17.652Z,279
2022-09-29T21:34:25.053Z,279
2022-09-29T21:36:30.501Z,279
2022-09-29T21:38:36.086Z,279
2022-09-29T21:40:41.219Z,279
2022-09-29T21:42:46.869Z,279
2022-09-29T21:44:59.311Z,279
2022-09-29T21:47:05.137Z,279
2022-09-29T21:49:11.147Z,279
2022-09-29T21:51:16.951Z,279
2022-09-29T21:53:22.080Z,283
2022-09-29T21:55:27.457Z,282
2022-09-29T21:57:33.002Z,282
2022-09-29T21:59:38.527Z,282
2022-09-29T22:01:44.338Z,281
2022-09-29T22:03:50.565Z,283
2022-09-29T22:05:56.508Z,283
2022-09-29T22:08:02.531Z,283
2022-09-29T22:10:07.982Z,283
2022-09-29T22:12:14.587Z,282
2022-09-29T22:14:19.945Z,280
2022-09-29T22:16:25.663Z,281
2022-09-29T22:18:43.809Z,281
2022-09-29T22:20:52.209Z,281
2022-09-29T22:22:57.585Z,281
2022-09-29T22:25:02.805Z,283
2022-09-29T22:27:08.200Z,281
2022-09-29T22:29:13.593Z,282
2022-09-29T22:31:19.145Z,274
2022-09-29T22:33:24.873Z,276
2022-09-29T22:35:30.268Z,276
2022-09-29T22:37:35.515Z,276
2022-09-29T22:39:41.141Z,278
2022-09-29T22:41:46.573Z,282
2022-09-29T22:43:51.781Z,284
2022-09-29T22:45:57.339Z,285
2022-09-29T22:48:02.556Z,281
2022-09-29T22:50:07.858Z,281
2022-09-29T22:52:13.543Z,284
2022-09-29T22:54:18.994Z,282
2022-09-29T22:56:24.208Z,282
2022-09-29T22:58:29.655Z,282
2022-09-29T23:00:35.223Z,280
2022-09-29T23:02:40.494Z,284
2022-09-29T23:04:46.016Z,282
2022-09-29T23:06:51.466Z,284
2022-09-29T23:08:57.120Z,282
2022-09-29T23:11:02.569Z,282
2022-09-29T23:13:07.871Z,282
2022-09-29T23:15:14.175Z,281
2022-09-29T23:17:19.494Z,281
2022-09-29T23:19:25.006Z,281
2022-09-29T23:21:30.153Z,281
2022-09-29T23:23:35.513Z,281
2022-09-29T23:25:40.792Z,281
2022-09-29T23:27:45.857Z,281
2022-09-29T23:29:51.386Z,283
2022-09-29T23:31:57.096Z,283
2022-09-29T23:34:02.461Z,282
2022-09-29T23:36:08.019Z,282
2022-09-29T23:38:13.253Z,280
2022-09-29T23:40:18.457Z,283
2022-09-29T23:42:23.714Z,282
2022-09-29T23:44:28.933Z,282
2022-09-29T23:46:34.660Z,282
2022-09-29T23:48:40.080Z,283
2022-09-29T23:50:45.574Z,282
2022-09-29T23:52:50.709Z,283
2022-09-29T23:54:55.829Z,282
2022-09-29T23:57:01.102Z,281
2022-09-29T23:59:06.116Z,278
